createdAt,value
2022-10-28T00:01:51.304Z,101477.63
2022-10-28T00:04:17.659Z,101468.75
2022-10-28T00:06:43.989Z,101467.94
2022-10-28T00:09:12.399Z,101466.44
2022-10-28T00:11:38.800Z,101476.50
2022-10-28T00:14:05.886Z,101468.63
2022-10-28T00:16:33.303Z,101473.72
2022-10-28T00:19:00.252Z,101482.13
2022-10-28T00:21:27.733Z,101472.72
2022-10-28T00:23:54.177Z,101479.28
2022-10-28T00:26:22.578Z,101481.34
2022-10-28T00:28:50.245Z,101476.31
2022-10-28T00:31:18.037Z,101474.66
2022-10-28T00:33:44.496Z,101477.69
2022-10-28T00:36:11.958Z,101478.88
2022-10-28T00:38:38.563Z,101475.56
2022-10-28T00:41:05.092Z,101476.75
2022-10-28T00:43:36.477Z,101476.06
2022-10-28T00:46:03.556Z,101482.63
2022-10-28T00:48:30.042Z,101474.94
2022-10-28T00:50:56.470Z,101478.47
2022-10-28T00:53:24.986Z,101477.63
2022-10-28T00:55:51.617Z,101470.59
2022-10-28T00:58:19.085Z,101469.75
2022-10-28T01:00:46.735Z,101468.94
2022-10-28T01:03:13.175Z,101468.09
2022-10-28T01:05:41.160Z,101468.28
2022-10-28T01:08:07.584Z,101470.28
2022-10-28T01:10:42.204Z,101464.94
2022-10-28T01:13:11.384Z,101470.47
2022-10-28T01:15:41.445Z,101469.34
2022-10-28T01:18:14.311Z,101467.66
2022-10-28T01:20:52.027Z,101470.53
2022-10-28T01:23:21.921Z,101465.34
2022-10-28T01:26:06.199Z,101460.97
2022-10-28T01:28:40.989Z,101454.97
2022-10-28T01:31:17.223Z,101446.28
2022-10-28T01:33:49.053Z,101446.63
2022-10-28T01:36:17.862Z,101451.31
2022-10-28T01:38:49.878Z,101447.97
2022-10-28T01:41:17.475Z,101445.69
2022-10-28T01:43:47.050Z,101440.66
2022-10-28T01:46:17.138Z,101438.16
2022-10-28T01:48:45.246Z,101435.66
2022-10-28T01:51:13.634Z,101434.81
2022-10-28T01:53:40.193Z,101436.66
2022-10-28T01:56:08.158Z,101436.81
2022-10-28T01:58:36.724Z,101437.66
2022-10-28T02:01:05.414Z,101425.28
2022-10-28T02:03:33.708Z,101433.50
2022-10-28T02:06:02.704Z,101431.00
2022-10-28T02:08:35.226Z,101426.00
2022-10-28T02:11:12.378Z,101431.69
2022-10-28T02:13:42.140Z,101425.22
2022-10-28T02:16:13.413Z,101434.44
2022-10-28T02:18:43.783Z,101432.25
2022-10-28T02:21:13.606Z,101427.28
2022-10-28T02:23:43.407Z,101421.44
2022-10-28T02:26:14.773Z,101426.78
2022-10-28T02:28:43.072Z,101428.97
2022-10-28T02:31:15.989Z,101429.81
2022-10-28T02:33:44.305Z,101425.81
2022-10-28T02:36:12.299Z,101436.00
2022-10-28T02:38:39.821Z,101429.47
2022-10-28T02:41:08.688Z,101430.69
2022-10-28T02:43:36.911Z,101414.97
2022-10-28T02:46:04.717Z,101416.81
2022-10-28T02:48:33.608Z,101416.81
2022-10-28T02:51:07.361Z,101407.09
2022-10-28T02:53:40.000Z,101405.44
2022-10-28T02:56:08.248Z,101400.91
2022-10-28T02:58:37.958Z,101399.06
2022-10-28T03:01:04.286Z,101396.41
2022-10-28T03:03:30.634Z,101398.06
2022-10-28T03:05:56.896Z,101401.56
2022-10-28T03:08:24.515Z,101407.94
2022-10-28T03:10:51.102Z,101402.91
2022-10-28T03:13:17.406Z,101409.44
2022-10-28T03:15:43.681Z,101417.84
2022-10-28T03:18:09.948Z,101417.19
2022-10-28T03:20:36.256Z,101413.00
2022-10-28T03:23:02.552Z,101414.84
2022-10-28T03:25:30.176Z,101413.16
2022-10-28T03:27:56.499Z,101409.50
2022-10-28T03:30:22.924Z,101402.63
2022-10-28T03:32:49.215Z,101402.84
2022-10-28T03:35:15.706Z,101412.88
2022-10-28T03:37:42.022Z,101409.34
2022-10-28T03:40:08.652Z,101413.19
2022-10-28T03:42:38.864Z,101409.03
2022-10-28T03:45:07.595Z,101404.84
2022-10-28T03:47:34.336Z,101403.00
2022-10-28T03:50:00.654Z,101407.34
2022-10-28T03:52:27.109Z,101400.16
2022-10-28T03:54:53.387Z,101404.50
2022-10-28T03:57:19.671Z,101400.16
2022-10-28T03:59:47.291Z,101390.28
2022-10-28T04:02:13.646Z,101401.00
2022-10-28T04:04:40.022Z,101394.81
2022-10-28T04:07:06.435Z,101392.97
2022-10-28T04:09:39.943Z,101390.97
2022-10-28T04:12:06.742Z,101406.69
2022-10-28T04:14:33.042Z,101401.16
2022-10-28T04:17:00.718Z,101394.13
2022-10-28T04:19:27.339Z,101405.66
2022-10-28T04:21:53.697Z,101406.50
2022-10-28T04:24:19.991Z,101405.50
2022-10-28T04:26:46.283Z,101409.03
2022-10-28T04:29:12.560Z,101402.84
2022-10-28T04:31:38.867Z,101411.88
2022-10-28T04:34:06.463Z,101416.38
2022-10-28T04:36:32.749Z,101407.00
2022-10-28T04:38:59.485Z,101412.53
2022-10-28T04:41:26.146Z,101418.06
2022-10-28T04:43:52.464Z,101412.88
2022-10-28T04:46:18.752Z,101417.41
2022-10-28T04:48:46.614Z,101416.59
2022-10-28T04:51:14.527Z,101411.22
2022-10-28T04:53:40.814Z,101409.56
2022-10-28T04:56:08.304Z,101411.41
2022-10-28T04:58:34.585Z,101405.38
2022-10-28T05:01:04.609Z,101404.53
2022-10-28T05:03:30.933Z,101406.53
2022-10-28T05:05:57.239Z,101399.53
2022-10-28T05:08:24.912Z,101400.34
2022-10-28T05:10:51.507Z,101396.84
2022-10-28T05:13:17.881Z,101397.84
2022-10-28T05:15:44.154Z,101390.81
2022-10-28T05:18:10.434Z,101396.00
2022-10-28T05:20:36.732Z,101396.00
2022-10-28T05:23:03.005Z,101399.53
2022-10-28T05:25:30.664Z,101401.19
2022-10-28T05:27:57.778Z,101408.22
2022-10-28T05:30:24.055Z,101401.19
2022-10-28T05:32:52.928Z,101401.19
2022-10-28T05:35:21.561Z,101397.69
2022-10-28T05:37:47.850Z,101399.34
2022-10-28T05:40:14.168Z,101402.03
2022-10-28T05:42:42.333Z,101399.03
2022-10-28T05:45:09.253Z,101399.03
2022-10-28T05:47:37.846Z,101399.50
2022-10-28T05:50:06.836Z,101385.09
2022-10-28T05:52:33.113Z,101390.28
2022-10-28T05:54:59.416Z,101396.81
2022-10-28T05:57:25.722Z,101399.31
2022-10-28T05:59:53.352Z,101396.81
2022-10-28T06:02:19.658Z,101402.16
2022-10-28T06:04:46.178Z,101402.16
2022-10-28T06:07:12.457Z,101401.16
2022-10-28T06:09:38.759Z,101400.16
2022-10-28T06:12:04.384Z,101401.16
2022-10-28T06:14:30.666Z,101396.81
2022-10-28T06:16:58.278Z,101398.69
2022-10-28T06:19:24.621Z,101400.53
2022-10-28T06:21:50.913Z,101402.16
2022-10-28T06:24:17.185Z,101393.50
2022-10-28T06:26:43.507Z,101399.69
2022-10-28T06:29:09.936Z,101405.69
2022-10-28T06:31:37.347Z,101399.31
2022-10-28T06:34:04.993Z,101409.84
2022-10-28T06:36:31.324Z,101412.38
2022-10-28T06:38:57.761Z,101410.53
2022-10-28T06:41:24.061Z,101411.38
2022-10-28T06:43:50.366Z,101413.03
2022-10-28T06:46:16.714Z,101405.84
2022-10-28T06:48:44.547Z,101412.88
2022-10-28T06:51:12.160Z,101406.50
2022-10-28T06:53:38.436Z,101418.88
2022-10-28T06:56:05.083Z,101411.50
2022-10-28T06:58:31.360Z,101414.84
2022-10-28T07:01:02.439Z,101417.00
2022-10-28T07:03:28.772Z,101410.50
2022-10-28T07:05:55.043Z,101412.63
2022-10-28T07:08:22.677Z,101415.13
2022-10-28T07:10:55.505Z,101418.31
2022-10-28T07:13:21.867Z,101416.28
2022-10-28T07:15:50.649Z,101422.63
2022-10-28T07:18:16.922Z,101420.47
2022-10-28T07:20:43.217Z,101419.09
2022-10-28T07:23:09.493Z,101421.25
2022-10-28T07:25:37.226Z,101418.88
2022-10-28T07:28:03.838Z,101431.75
2022-10-28T07:30:30.259Z,101434.91
2022-10-28T07:32:56.793Z,101430.88
2022-10-28T07:35:23.306Z,101439.22
2022-10-28T07:37:49.714Z,101451.22
2022-10-28T07:40:16.014Z,101444.34
2022-10-28T07:42:43.645Z,101444.63
2022-10-28T07:45:09.954Z,101443.28
2022-10-28T07:47:36.233Z,101447.13
2022-10-28T07:50:03.002Z,101435.69
2022-10-28T07:52:29.295Z,101438.13
2022-10-28T07:54:55.601Z,101431.84
2022-10-28T07:57:21.920Z,101427.91
2022-10-28T07:59:49.555Z,101417.97
2022-10-28T08:02:17.214Z,101422.28
2022-10-28T08:04:43.517Z,101424.69
2022-10-28T08:07:09.837Z,101427.78
2022-10-28T08:09:36.130Z,101423.81
2022-10-28T08:12:02.430Z,101436.78
2022-10-28T08:14:28.727Z,101439.84
2022-10-28T08:16:56.389Z,101435.22
2022-10-28T08:19:22.689Z,101434.09
2022-10-28T08:21:48.958Z,101432.59
2022-10-28T08:24:15.330Z,101426.75
2022-10-28T08:26:41.637Z,101433.53
2022-10-28T08:29:09.246Z,101433.22
2022-10-28T08:31:35.540Z,101437.50
2022-10-28T08:34:03.168Z,101444.03
2022-10-28T08:36:29.470Z,101438.34
2022-10-28T08:38:55.780Z,101434.72
2022-10-28T08:41:29.536Z,101438.03
2022-10-28T08:44:04.978Z,101445.09
2022-10-28T08:46:42.163Z,101436.19
2022-10-28T08:49:11.089Z,101434.53
2022-10-28T08:51:40.781Z,101429.56
2022-10-28T08:54:12.932Z,101427.16
2022-10-28T08:56:40.993Z,101433.03
2022-10-28T08:59:10.640Z,101423.63
2022-10-28T09:01:39.340Z,101425.75
2022-10-28T09:04:10.874Z,101429.88
2022-10-28T09:06:38.496Z,101427.03
2022-10-28T09:09:04.832Z,101430.72
2022-10-28T09:11:37.927Z,101435.56
2022-10-28T09:14:11.739Z,101437.69
2022-10-28T09:16:45.454Z,101441.44
2022-10-28T09:19:14.968Z,101445.22
2022-10-28T09:21:47.024Z,101450.00
2022-10-28T09:24:16.643Z,101455.66
2022-10-28T09:26:47.514Z,101444.28
2022-10-28T09:29:28.525Z,101459.84
2022-10-28T09:31:58.004Z,101447.03
2022-10-28T09:34:29.471Z,101453.88
2022-10-28T09:37:00.997Z,101458.47
2022-10-28T09:39:29.529Z,101459.34
2022-10-28T09:41:58.267Z,101462.09
2022-10-28T09:44:28.427Z,101458.03
2022-10-28T09:46:56.994Z,101460.78
2022-10-28T09:49:25.714Z,101462.16
2022-10-28T09:51:55.496Z,101461.19
2022-10-28T09:54:28.102Z,101456.63
2022-10-28T09:56:54.517Z,101448.34
2022-10-28T09:59:20.836Z,101450.63
2022-10-28T10:01:47.216Z,101458.75
2022-10-28T10:04:17.477Z,101450.47
2022-10-28T10:06:45.391Z,101458.81
2022-10-28T10:09:15.973Z,101455.72
2022-10-28T10:11:45.042Z,101455.72
2022-10-28T10:14:13.129Z,101459.88
2022-10-28T10:16:42.477Z,101454.09
2022-10-28T10:19:09.574Z,101463.06
2022-10-28T10:21:43.260Z,101459.53
2022-10-28T10:24:21.553Z,101467.84
2022-10-28T10:26:49.290Z,101465.78
2022-10-28T10:29:15.671Z,101471.78
2022-10-28T10:31:42.073Z,101473.66
2022-10-28T10:34:20.599Z,101462.84
2022-10-28T10:36:48.921Z,101464.97
2022-10-28T10:39:19.200Z,101467.66
2022-10-28T10:41:45.521Z,101473.66
2022-10-28T10:44:30.913Z,101479.28
2022-10-28T10:47:19.735Z,101472.19
2022-10-28T10:49:46.050Z,101464.13
2022-10-28T10:52:17.300Z,101457.03
2022-10-28T10:54:47.268Z,101455.56
2022-10-28T10:57:16.938Z,101461.59
2022-10-28T10:59:46.737Z,101447.44
2022-10-28T11:02:20.861Z,101442.69
2022-10-28T11:04:50.671Z,101443.09
2022-10-28T11:07:17.145Z,101453.53
2022-10-28T11:09:47.279Z,101456.03
2022-10-28T11:12:14.730Z,101454.13
2022-10-28T11:14:53.071Z,101445.81
2022-10-28T11:17:23.898Z,101452.44
2022-10-28T11:19:52.093Z,101436.66
2022-10-28T11:22:26.441Z,101431.84
2022-10-28T11:25:01.786Z,101425.41
2022-10-28T11:27:33.958Z,101420.63
2022-10-28T11:30:00.854Z,101419.78
2022-10-28T11:32:38.282Z,101410.41
2022-10-28T11:35:28.565Z,101409.16
2022-10-28T11:38:01.412Z,101407.25
2022-10-28T11:40:30.193Z,101413.25
2022-10-28T11:43:02.637Z,101398.28
2022-10-28T11:45:31.900Z,101402.00
2022-10-28T11:48:06.819Z,101395.13
2022-10-28T11:50:35.178Z,101403.84
2022-10-28T11:53:11.839Z,101397.19
2022-10-28T11:55:39.584Z,101412.38
2022-10-28T11:58:14.979Z,101408.84
2022-10-28T12:00:47.075Z,101396.16
2022-10-28T12:03:31.154Z,101395.09
2022-10-28T12:06:03.930Z,101395.69
2022-10-28T12:08:36.993Z,101410.66
2022-10-28T12:11:10.443Z,101415.03
2022-10-28T12:13:40.020Z,101409.63
2022-10-28T12:16:09.810Z,101411.50
2022-10-28T12:18:40.544Z,101404.22
2022-10-28T12:21:14.286Z,101410.66
2022-10-28T12:23:41.404Z,101421.47
2022-10-28T12:26:09.391Z,101415.03
2022-10-28T12:28:40.784Z,101416.69
2022-10-28T12:31:09.668Z,101416.69
2022-10-28T12:33:39.438Z,101418.34
2022-10-28T12:36:19.675Z,101416.25
2022-10-28T12:38:50.677Z,101417.88
2022-10-28T12:41:19.073Z,101416.00
2022-10-28T12:43:48.792Z,101424.94
2022-10-28T12:46:18.867Z,101421.41
2022-10-28T12:48:48.409Z,101427.44
2022-10-28T12:51:16.470Z,101434.53
2022-10-28T12:53:47.801Z,101431.38
2022-10-28T12:56:15.921Z,101439.72
2022-10-28T12:58:47.783Z,101436.81
2022-10-28T13:01:15.625Z,101432.66
2022-10-28T13:03:42.166Z,101433.91
2022-10-28T13:11:42.293Z,101453.25
2022-10-28T13:14:16.337Z,101458.03
2022-10-28T13:16:52.552Z,101453.50
2022-10-28T13:19:33.478Z,101454.75
2022-10-28T13:22:09.819Z,101457.88
2022-10-28T13:24:42.124Z,101461.44
2022-10-28T13:27:11.931Z,101460.00
2022-10-28T13:29:39.731Z,101468.50
2022-10-28T13:32:06.358Z,101469.75
2022-10-28T13:34:33.706Z,101470.81
2022-10-28T13:37:01.787Z,101475.63
2022-10-28T13:39:42.367Z,101478.94
2022-10-28T13:42:27.184Z,101482.69
2022-10-28T13:44:54.356Z,101477.69
2022-10-28T13:47:25.364Z,101487.09
2022-10-28T13:50:14.488Z,101478.16
2022-10-28T13:52:41.711Z,101488.34
2022-10-28T13:55:22.874Z,101488.34
2022-10-28T13:57:50.885Z,101491.47
2022-10-28T14:00:32.128Z,101493.50
2022-10-28T14:03:00.053Z,101497.25
2022-10-28T14:05:46.933Z,101507.03
2022-10-28T14:08:18.259Z,101496.78
2022-10-28T14:10:56.525Z,101498.03
2022-10-28T14:13:23.157Z,101504.28
2022-10-28T14:15:50.007Z,101514.47
2022-10-28T14:21:07.768Z,101527.59
2022-10-28T14:23:50.435Z,101531.94
2022-10-28T14:26:18.108Z,101541.31
2022-10-28T14:28:53.974Z,101525.91
2022-10-28T14:31:33.246Z,101520.72
2022-10-28T14:34:18.204Z,101528.88
2022-10-28T14:36:52.046Z,101522.41
2022-10-28T14:39:35.436Z,101524.94
2022-10-28T14:42:14.934Z,101531.19
2022-10-28T14:44:50.244Z,101528.31
2022-10-28T14:47:29.817Z,101533.50
2022-10-28T14:49:58.664Z,101524.97
2022-10-28T14:52:25.713Z,101529.78
2022-10-28T14:54:53.763Z,101527.47
2022-10-28T14:57:29.443Z,101531.22
2022-10-28T15:00:01.833Z,101532.25
2022-10-28T15:02:29.630Z,101534.34
2022-10-28T15:05:01.285Z,101549.72
2022-10-28T15:07:27.652Z,101542.25
2022-10-28T15:09:54.630Z,101543.06
2022-10-28T15:12:23.757Z,101543.91
2022-10-28T15:14:50.855Z,101541.41
2022-10-28T15:17:18.283Z,101548.03
2022-10-28T15:19:45.477Z,101554.69
2022-10-28T15:22:13.143Z,101547.81
2022-10-28T15:24:43.077Z,101539.94
2022-10-28T15:27:12.661Z,101547.16
2022-10-28T15:29:41.152Z,101556.72
2022-10-28T15:32:10.378Z,101554.00
2022-10-28T15:34:36.709Z,101549.22
2022-10-28T15:37:03.046Z,101541.94
2022-10-28T15:39:29.391Z,101543.78
2022-10-28T15:41:55.736Z,101554.31
2022-10-28T15:44:24.063Z,101557.84
2022-10-28T15:46:52.410Z,101563.03
2022-10-28T15:49:31.239Z,101568.19
2022-10-28T15:52:16.419Z,101569.78
2022-10-28T15:54:43.218Z,101568.75
2022-10-28T15:57:20.510Z,101575.56
2022-10-28T15:59:46.913Z,101568.94
2022-10-28T16:02:28.244Z,101578.63
2022-10-28T16:04:56.013Z,101575.91
2022-10-28T16:07:22.344Z,101572.97
2022-10-28T16:09:49.038Z,101584.38
2022-10-28T16:12:16.265Z,101583.28
2022-10-28T16:14:43.595Z,101573.28
2022-10-28T16:17:13.460Z,101575.75
2022-10-28T16:19:41.354Z,101576.53
2022-10-28T16:22:10.934Z,101581.81
2022-10-28T16:24:37.254Z,101579.47
2022-10-28T16:27:16.969Z,101581.31
2022-10-28T16:29:43.286Z,101596.78
2022-10-28T16:32:11.457Z,101602.28
2022-10-28T16:34:37.930Z,101603.06
2022-10-28T16:37:13.245Z,101599.25
2022-10-28T16:39:40.980Z,101613.31
2022-10-28T16:42:08.138Z,101621.97
2022-10-28T16:44:34.476Z,101630.63
2022-10-28T16:47:00.796Z,101640.28
2022-10-28T16:49:27.111Z,101634.66
2022-10-28T16:51:53.433Z,101629.00
2022-10-28T16:54:19.751Z,101621.28
2022-10-28T16:56:47.461Z,101619.84
2022-10-28T16:59:13.839Z,101615.66
2022-10-28T17:01:40.333Z,101618.53
2022-10-28T17:04:09.029Z,101630.50
2022-10-28T17:06:35.593Z,101632.53
2022-10-28T17:09:03.604Z,101626.53
2022-10-28T17:13:59.133Z,101635.16
2022-10-28T17:16:25.520Z,101633.84
2022-10-28T17:18:51.987Z,101637.13
2022-10-28T17:21:18.675Z,101631.28
2022-10-28T17:23:45.440Z,101639.72
2022-10-28T17:26:11.908Z,101653.72
2022-10-28T17:28:38.356Z,101642.31
2022-10-28T17:31:07.032Z,101656.97
2022-10-28T17:33:34.177Z,101666.25
2022-10-28T17:36:00.778Z,101667.66
2022-10-28T17:38:27.132Z,101672.56
2022-10-28T17:40:53.781Z,101680.16
2022-10-28T17:43:20.166Z,101679.72
2022-10-28T17:45:46.794Z,101678.22
2022-10-28T17:48:14.557Z,101686.63
2022-10-28T17:50:40.913Z,101685.16
2022-10-28T17:53:07.472Z,101682.66
2022-10-28T17:55:33.932Z,101688.41
2022-10-28T17:58:00.357Z,101686.91
2022-10-28T18:00:27.602Z,101685.59
2022-10-28T18:02:54.996Z,101683.28
2022-10-28T18:05:22.781Z,101695.41
2022-10-28T18:07:49.111Z,101706.91
2022-10-28T18:10:15.568Z,101699.38
2022-10-28T18:12:41.959Z,101706.78
2022-10-28T18:15:08.676Z,101706.13
2022-10-28T18:17:35.039Z,101706.34
2022-10-28T18:20:01.393Z,101709.03
2022-10-28T18:22:29.178Z,101709.84
2022-10-28T18:24:55.589Z,101713.56
2022-10-28T18:27:22.166Z,101717.09
2022-10-28T18:29:48.558Z,101716.25
2022-10-28T18:32:15.476Z,101711.72
2022-10-28T18:34:41.891Z,101720.78
2022-10-28T18:37:08.378Z,101722.63
2022-10-28T18:39:36.074Z,101721.97
2022-10-28T18:42:02.505Z,101720.44
2022-10-28T18:44:28.903Z,101725.81
2022-10-28T18:46:55.261Z,101723.97
2022-10-28T18:49:21.653Z,101733.69
2022-10-28T18:51:50.466Z,101730.19
2022-10-28T18:54:16.870Z,101727.50
2022-10-28T18:56:47.707Z,101735.06
2022-10-28T18:59:15.073Z,101733.94
2022-10-28T19:01:41.527Z,101730.94
2022-10-28T19:04:07.895Z,101735.88
2022-10-28T19:06:34.338Z,101742.44
2022-10-28T19:09:01.703Z,101737.13
2022-10-28T19:11:29.153Z,101732.94
2022-10-28T19:13:57.520Z,101735.97
2022-10-28T19:16:24.094Z,101746.03
2022-10-28T19:18:53.470Z,101741.06
2022-10-28T19:21:19.838Z,101744.38
2022-10-28T19:23:46.145Z,101743.34
2022-10-28T19:26:12.854Z,101740.50
2022-10-28T19:28:40.107Z,101742.19
2022-10-28T19:31:11.256Z,101741.00
2022-10-28T19:33:37.845Z,101744.50
2022-10-28T19:36:05.493Z,101752.41
2022-10-28T19:38:32.826Z,101761.28
2022-10-28T19:41:05.972Z,101766.66
2022-10-28T19:43:32.351Z,101768.84
2022-10-28T19:46:02.620Z,101759.47
2022-10-28T19:48:30.384Z,101770.22
2022-10-28T19:50:56.953Z,101762.53
2022-10-28T19:53:23.325Z,101757.34
2022-10-28T19:55:49.786Z,101770.09
2022-10-28T19:58:16.391Z,101759.53
2022-10-28T20:00:42.710Z,101765.91
2022-10-28T20:03:10.567Z,101769.13
2022-10-28T20:05:38.225Z,101761.44
2022-10-28T20:08:04.537Z,101764.28
2022-10-28T20:10:31.004Z,101766.97
2022-10-28T20:12:57.569Z,101769.81
2022-10-28T20:15:24.024Z,101776.03
2022-10-28T20:17:50.332Z,101776.38
2022-10-28T20:20:16.644Z,101787.81
2022-10-28T20:22:44.560Z,101787.31
2022-10-28T20:25:10.896Z,101793.41
2022-10-28T20:27:37.200Z,101803.34
2022-10-28T20:30:03.790Z,101796.13
2022-10-28T20:32:30.143Z,101797.50
2022-10-28T20:34:56.993Z,101794.16
2022-10-28T20:37:23.311Z,101798.84
2022-10-28T20:39:53.687Z,101802.53
2022-10-28T20:42:22.912Z,101808.03
2022-10-28T20:44:50.327Z,101814.56
2022-10-28T20:47:16.879Z,101812.25
2022-10-28T20:49:43.915Z,101813.44
2022-10-28T20:52:10.279Z,101819.81
2022-10-28T20:54:36.580Z,101826.50
2022-10-28T20:57:04.215Z,101829.72
2022-10-28T20:59:30.532Z,101828.69
2022-10-28T21:01:57.005Z,101830.41
2022-10-28T21:04:23.674Z,101840.28
2022-10-28T21:06:50.420Z,101834.41
2022-10-28T21:09:16.761Z,101843.81
2022-10-28T21:11:44.095Z,101839.78
2022-10-28T21:14:12.639Z,101845.31
2022-10-28T21:16:39.242Z,101842.78
2022-10-28T21:19:06.610Z,101849.84
2022-10-28T21:21:32.925Z,101844.63
2022-10-28T21:23:59.393Z,101844.63
2022-10-28T21:26:26.007Z,101846.84
2022-10-28T21:28:52.802Z,101849.50
2022-10-28T21:31:21.016Z,101848.31
2022-10-28T21:36:20.680Z,101851.81
2022-10-28T21:38:47.319Z,101845.81
2022-10-28T21:41:16.707Z,101848.97
2022-10-28T21:43:43.997Z,101844.09
2022-10-28T21:46:10.716Z,101845.09
2022-10-28T21:48:43.128Z,101848.56
2022-10-28T21:51:14.386Z,101854.06
2022-10-28T21:53:41.750Z,101857.75
2022-10-28T21:56:11.109Z,101858.59
2022-10-28T21:58:40.512Z,101857.59
2022-10-28T22:01:08.112Z,101850.72
2022-10-28T22:03:34.841Z,101842.84
2022-10-28T22:06:02.587Z,101846.34
2022-10-28T22:08:29.061Z,101850.72
2022-10-28T22:10:59.132Z,101855.22
2022-10-28T22:13:25.527Z,101852.91
2022-10-28T22:15:55.877Z,101846.19
2022-10-28T22:18:22.344Z,101855.19
2022-10-28T22:20:48.649Z,101855.19
2022-10-28T22:23:17.464Z,101866.38
2022-10-28T22:25:48.110Z,101861.72
2022-10-28T22:28:15.614Z,101860.34
2022-10-28T22:30:42.194Z,101854.16
2022-10-28T22:33:08.813Z,101863.03
2022-10-28T22:35:35.159Z,101861.03
2022-10-28T22:38:01.540Z,101861.72
2022-10-28T22:40:28.928Z,101865.06
2022-10-28T22:42:56.851Z,101865.22
2022-10-28T22:45:23.280Z,101854.84
2022-10-28T22:47:49.644Z,101857.50
2022-10-28T22:50:16.025Z,101861.19
2022-10-28T22:52:42.409Z,101863.38
2022-10-28T22:55:09.257Z,101858.50
2022-10-28T22:57:35.654Z,101856.66
2022-10-28T23:00:03.655Z,101872.88
2022-10-28T23:02:30.841Z,101876.59
2022-10-28T23:04:57.780Z,101880.91
2022-10-28T23:07:26.482Z,101878.25
2022-10-28T23:09:53.073Z,101884.44
2022-10-28T23:12:19.494Z,101880.59
2022-10-28T23:14:47.311Z,101875.94
2022-10-28T23:17:14.962Z,101867.91
2022-10-28T23:19:41.415Z,101863.53
2022-10-28T23:22:07.764Z,101862.53
2022-10-28T23:24:34.099Z,101867.06
2022-10-28T23:27:00.462Z,101872.94
2022-10-28T23:29:28.868Z,101871.78
2022-10-28T23:31:55.445Z,101860.25
2022-10-28T23:34:23.447Z,101867.44
2022-10-28T23:36:49.772Z,101866.75
2022-10-28T23:39:16.745Z,101871.25
2022-10-28T23:41:43.169Z,101873.09
2022-10-28T23:44:09.479Z,101885.66
2022-10-28T23:46:37.516Z,101878.75
2022-10-28T23:49:04.314Z,101883.44
2022-10-28T23:51:32.360Z,101893.31
2022-10-28T23:53:58.734Z,101890.63
2022-10-28T23:56:25.094Z,101888.78
2022-10-28T23:58:54.013Z,101886.94
